Time,TemperatureF,DewpointF,PressureIn,WindDirection,WindDirectionDegrees,WindSpeedMPH,WindSpeedGustMPH,Humidity,HourlyPrecipIn,Conditions,Clouds,dailyrainin,SolarRadiationWatts/m^2,SoftwareType,DateUTC
2013-09-06 00:13:00,59.7,53.0,29.96,NW,319,0.0,2.0,78,0.00,,,0.00,0,weatherlink.com 1.10,2013-09-06 07:13:00,
2013-09-06 00:28:00,58.9,52.0,29.97,West,267,0.0,3.0,78,0.00,,,0.00,0,weatherlink.com 1.10,2013-09-06 07:28:00,
2013-09-06 00:43:00,58.0,52.0,29.97,West,267,0.0,0.0,80,0.00,,,0.00,0,weatherlink.com 1.10,2013-09-06 07:43:00,
2013-09-06 00:58:00,58.4,53.0,29.97,WNW,296,1.0,2.0,81,0.00,,,0.00,0,weatherlink.com 1.10,2013-09-06 07:58:00,
2013-09-06 01:13:00,58.6,52.0,29.97,North,5,1.0,4.0,80,0.00,,,0.00,0,weatherlink.com 1.10,2013-09-06 08:13:00,
2013-09-06 01:28:00,57.8,52.0,29.96,North,5,0.0,5.0,80,0.00,,,0.00,0,weatherlink.com 1.10,2013-09-06 08:28:00,
2013-09-06 01:43:00,57.4,52.0,29.96,North,355,0.0,3.0,81,0.00,,,0.00,0,weatherlink.com 1.10,2013-09-06 08:43:00,
2013-09-06 01:58:00,56.9,52.0,29.96,North,355,0.0,2.0,82,0.00,,,0.00,0,weatherlink.com 1.10,2013-09-06 08:58:00,
2013-09-06 02:13:00,56.3,51.0,29.95,North,355,0.0,1.0,82,0.00,,,0.00,0,weatherlink.com 1.10,2013-09-06 09:13:00,
2013-09-06 02:28:00,56.3,51.0,29.95,North,5,0.0,4.0,83,0.00,,,0.00,0,weatherlink.com 1.10,2013-09-06 09:28:00,
2013-09-06 02:43:00,57.0,51.0,29.95,NNE,17,1.0,5.0,81,0.00,,,0.00,0,weatherlink.com 1.10,2013-09-06 09:43:00,
2013-09-06 02:58:00,57.2,51.0,29.94,North,5,0.0,4.0,81,0.00,,,0.00,0,weatherlink.com 1.10,2013-09-06 09:58:00,
2013-09-06 03:13:00,57.3,52.0,29.95,NNW,348,0.0,3.0,81,0.00,,,0.00,0,weatherlink.com 1.10,2013-09-06 10:13:00,
2013-09-06 03:28:00,57.3,52.0,29.95,NNW,340,0.0,1.0,81,0.00,,,0.00,0,weatherlink.com 1.10,2013-09-06 10:28:00,
2013-09-06 03:43:00,55.8,49.0,29.95,NNW,340,0.0,1.0,79,0.00,,,0.00,0,weatherlink.com 1.10,2013-09-06 10:43:00,
2013-09-06 03:58:00,54.0,49.0,29.95,NNW,340,0.0,0.0,83,0.00,,,0.00,0,weatherlink.com 1.10,2013-09-06 10:58:00,
2013-09-06 04:13:00,52.8,48.0,29.94,NNW,340,0.0,0.0,84,0.00,,,0.00,0,weatherlink.com 1.10,2013-09-06 11:13:00,
2013-09-06 04:28:00,52.1,48.0,29.95,North,360,0.0,0.0,86,0.00,,,0.00,0,weatherlink.com 1.10,2013-09-06 11:28:00,
2013-09-06 04:43:00,51.9,48.0,29.94,North,360,0.0,1.0,87,0.00,,,0.00,0,weatherlink.com 1.10,2013-09-06 11:43:00,
2013-09-06 04:58:00,52.1,48.0,29.94,NNW,340,0.0,0.0,87,0.00,,,0.00,0,weatherlink.com 1.10,2013-09-06 11:58:00,
2013-09-06 05:13:00,52.2,49.0,29.94,NNW,340,0.0,0.0,87,0.00,,,0.00,0,weatherlink.com 1.10,2013-09-06 12:13:00,
2013-09-06 05:28:00,51.2,47.0,29.94,NNW,340,0.0,0.0,85,0.00,,,0.00,0,weatherlink.com 1.10,2013-09-06 12:28:00,
2013-09-06 05:43:00,50.5,47.0,29.94,NNW,340,0.0,0.0,87,0.00,,,0.00,0,weatherlink.com 1.10,2013-09-06 12:43:00,
2013-09-06 05:58:00,50.2,47.0,29.94,NNW,340,0.0,0.0,89,0.00,,,0.00,0,weatherlink.com 1.10,2013-09-06 12:58:00,
2013-09-06 06:13:00,49.7,47.0,29.94,NNW,340,0.0,0.0,89,0.00,,,0.00,0,weatherlink.com 1.10,2013-09-06 13:13:00,
2013-09-06 06:29:00,49.4,47.0,29.94,North,360,0.0,0.0,91,0.00,,,0.00,0,weatherlink.com 1.10,2013-09-06 13:29:00,
2013-09-06 06:44:00,49.5,47.0,29.94,NNW,340,0.0,0.0,91,0.00,,,0.00,0,weatherlink.com 1.10,2013-09-06 13:44:00,
2013-09-06 06:59:00,49.0,46.0,29.94,NNW,340,0.0,0.0,90,0.00,,,0.00,9,weatherlink.com 1.10,2013-09-06 13:59:00,
2013-09-06 07:14:00,48.6,46.0,29.95,NNW,340,0.0,1.0,90,0.00,,,0.00,18,weatherlink.com 1.10,2013-09-06 14:14:00,
2013-09-06 07:29:00,49.8,48.0,29.96,NNW,340,0.0,0.0,92,0.00,,,0.00,74,weatherlink.com 1.10,2013-09-06 14:29:00,
2013-09-06 07:44:00,51.9,49.0,29.96,NNW,340,0.0,0.0,91,0.00,,,0.00,142,weatherlink.com 1.10,2013-09-06 14:44:00,
2013-09-06 07:59:00,53.8,50.0,29.96,NNW,340,0.0,1.0,88,0.00,,,0.00,199,weatherlink.com 1.10,2013-09-06 14:59:00,
2013-09-06 08:14:00,55.6,51.0,29.96,NNW,337,1.0,2.0,83,0.00,,,0.00,250,weatherlink.com 1.10,2013-09-06 15:14:00,
2013-09-06 08:29:00,57.5,52.0,29.96,NNW,337,0.0,1.0,81,0.00,,,0.00,299,weatherlink.com 1.10,2013-09-06 15:29:00,
2013-09-06 08:44:00,59.6,53.0,29.96,NNW,337,0.0,0.0,78,0.00,,,0.00,352,weatherlink.com 1.10,2013-09-06 15:44:00,
2013-09-06 08:59:00,62.1,54.0,29.96,NW,313,2.0,2.0,74,0.00,,,0.00,399,weatherlink.com 1.10,2013-09-06 15:59:00,
2013-09-06 09:14:00,63.0,54.0,29.96,WNW,284,1.0,3.0,72,0.00,,,0.00,446,weatherlink.com 1.10,2013-09-06 16:14:00,
2013-09-06 09:29:00,64.1,54.0,29.95,WNW,294,0.0,3.0,69,0.00,,,0.00,492,weatherlink.com 1.10,2013-09-06 16:29:00,
2013-09-06 09:44:00,66.0,54.0,29.95,WNW,290,3.0,3.0,66,0.00,,,0.00,534,weatherlink.com 1.10,2013-09-06 16:44:00,
2013-09-06 09:59:00,67.7,55.0,29.96,NNE,22,1.0,3.0,63,0.00,,,0.00,575,weatherlink.com 1.10,2013-09-06 16:59:00,
2013-09-06 10:14:00,69.7,55.0,29.96,NNE,24,0.0,3.0,60,0.00,,,0.00,617,weatherlink.com 1.10,2013-09-06 17:14:00,
2013-09-06 10:30:00,71.8,55.0,29.95,NE,34,0.0,3.0,56,0.00,,,0.00,652,weatherlink.com 1.10,2013-09-06 17:30:00,
2013-09-06 10:45:00,74.3,55.0,29.95,NE,51,0.0,4.0,52,0.00,,,0.00,686,weatherlink.com 1.10,2013-09-06 17:45:00,
2013-09-06 11:00:00,75.9,56.0,29.94,East,93,3.0,4.0,50,0.00,,,0.00,714,weatherlink.com 1.10,2013-09-06 18:00:00,
2013-09-06 11:15:00,78.3,55.0,29.93,NNE,21,0.0,3.0,44,0.00,,,0.00,740,weatherlink.com 1.10,2013-09-06 18:15:00,
2013-09-06 11:30:00,80.8,55.0,29.93,WNW,283,2.0,3.0,41,0.00,,,0.00,766,weatherlink.com 1.10,2013-09-06 18:30:00,
2013-09-06 11:45:00,80.9,55.0,29.93,NNE,21,0.0,6.0,41,0.00,,,0.00,782,weatherlink.com 1.10,2013-09-06 18:45:00,
2013-09-06 12:00:00,82.3,55.0,29.92,NNW,345,2.0,3.0,39,0.00,,,0.00,796,weatherlink.com 1.10,2013-09-06 19:00:00,
2013-09-06 12:15:00,83.0,55.0,29.91,NW,306,2.0,5.0,38,0.00,,,0.00,810,weatherlink.com 1.10,2013-09-06 19:15:00,
2013-09-06 12:30:00,84.4,55.0,29.91,West,273,1.0,6.0,36,0.00,,,0.00,819,weatherlink.com 1.10,2013-09-06 19:30:00,
2013-09-06 12:45:00,86.1,55.0,29.90,West,275,2.0,4.0,34,0.00,,,0.00,816,weatherlink.com 1.10,2013-09-06 19:45:00,
2013-09-06 13:00:00,87.5,52.0,29.89,WNW,298,1.0,8.0,30,0.00,,,0.00,795,weatherlink.com 1.10,2013-09-06 20:00:00,
2013-09-06 13:15:00,88.3,50.0,29.89,NNW,328,3.0,8.0,27,0.00,,,0.00,816,weatherlink.com 1.10,2013-09-06 20:15:00,
2013-09-06 13:30:00,89.0,50.0,29.88,WNW,296,4.0,7.0,26,0.00,,,0.00,809,weatherlink.com 1.10,2013-09-06 20:30:00,
2013-09-06 13:45:00,88.5,51.0,29.88,NE,36,4.0,10.0,28,0.00,,,0.00,798,weatherlink.com 1.10,2013-09-06 20:45:00,
2013-09-06 14:00:00,88.9,53.0,29.87,WNW,294,6.0,8.0,29,0.00,,,0.00,782,weatherlink.com 1.10,2013-09-06 21:00:00,
2013-09-06 14:15:00,89.5,52.0,29.87,West,268,3.0,9.0,28,0.00,,,0.00,183,weatherlink.com 1.10,2013-09-06 21:15:00,
2013-09-06 14:30:00,89.8,53.0,29.86,NW,321,3.0,11.0,28,0.00,,,0.00,40,weatherlink.com 1.10,2013-09-06 21:30:00,
2013-09-06 14:45:00,89.4,52.0,29.85,NNE,30,4.0,11.0,28,0.00,,,0.00,40,weatherlink.com 1.10,2013-09-06 21:45:00,
2013-09-06 15:00:00,88.9,52.0,29.85,NNE,12,12.0,12.0,28,0.00,,,0.00,53,weatherlink.com 1.10,2013-09-06 22:00:00,
2013-09-06 15:15:00,88.5,51.0,29.85,NNW,327,2.0,12.0,28,0.00,,,0.00,642,weatherlink.com 1.10,2013-09-06 22:15:00,
2013-09-06 15:31:00,88.8,51.0,29.84,North,355,8.0,10.0,27,0.00,,,0.00,631,weatherlink.com 1.10,2013-09-06 22:31:00,
2013-09-06 15:46:00,88.1,51.0,29.84,NW,324,7.0,12.0,28,0.00,,,0.00,596,weatherlink.com 1.10,2013-09-06 22:46:00,
2013-09-06 16:01:00,87.6,50.0,29.84,NW,314,7.0,13.0,27,0.00,,,0.00,559,weatherlink.com 1.10,2013-09-06 23:01:00,
2013-09-06 16:16:00,87.4,50.0,29.84,NNE,33,8.0,15.0,27,0.00,,,0.00,519,weatherlink.com 1.10,2013-09-06 23:16:00,
2013-09-06 16:31:00,86.3,50.0,29.83,WNW,294,5.0,15.0,28,0.00,,,0.00,475,weatherlink.com 1.10,2013-09-06 23:31:00,
2013-09-06 16:46:00,87.0,49.0,29.83,West,274,7.0,11.0,27,0.00,,,0.00,394,weatherlink.com 1.10,2013-09-06 23:46:00,
2013-09-06 17:01:00,86.0,49.0,29.83,WNW,303,8.0,12.0,28,0.00,,,0.00,381,weatherlink.com 1.10,2013-09-07 00:01:00,
2013-09-06 17:16:00,85.2,50.0,29.83,NNW,327,0.0,13.0,29,0.00,,,0.00,306,weatherlink.com 1.10,2013-09-07 00:16:00,
2013-09-06 17:31:00,85.1,49.0,29.82,North,349,4.0,10.0,29,0.00,,,0.00,35,weatherlink.com 1.10,2013-09-07 00:31:00,
2013-09-06 17:46:00,83.9,49.0,29.82,NNW,333,3.0,12.0,30,0.00,,,0.00,32,weatherlink.com 1.10,2013-09-07 00:46:00,
2013-09-06 18:01:00,83.8,48.0,29.82,WNW,300,7.0,10.0,29,0.00,,,0.00,121,weatherlink.com 1.10,2013-09-07 01:01:00,
2013-09-06 18:16:00,83.8,48.0,29.82,NNW,339,2.0,11.0,29,0.00,,,0.00,139,weatherlink.com 1.10,2013-09-07 01:16:00,
2013-09-06 18:31:00,82.9,48.0,29.82,NNW,342,4.0,9.0,30,0.00,,,0.00,86,weatherlink.com 1.10,2013-09-07 01:31:00,
2013-09-06 18:46:00,82.3,49.0,29.82,NW,314,4.0,6.0,31,0.00,,,0.00,46,weatherlink.com 1.10,2013-09-07 01:46:00,
2013-09-06 19:01:00,82.0,48.0,29.82,North,360,0.0,3.0,31,0.00,,,0.00,18,weatherlink.com 1.10,2013-09-07 02:01:00,
2013-09-06 19:16:00,80.8,48.0,29.82,NNE,15,2.0,2.0,32,0.00,,,0.00,11,weatherlink.com 1.10,2013-09-07 02:16:00,
2013-09-06 19:31:00,79.5,48.0,29.82,NW,324,0.0,3.0,33,0.00,,,0.00,5,weatherlink.com 1.10,2013-09-07 02:31:00,
2013-09-06 19:46:00,78.5,48.0,29.82,NW,323,0.0,3.0,34,0.00,,,0.00,0,weatherlink.com 1.10,2013-09-07 02:46:00,
2013-09-06 20:01:00,77.7,48.0,29.82,WNW,285,0.0,3.0,35,0.00,,,0.00,0,weatherlink.com 1.10,2013-09-07 03:01:00,
2013-09-06 20:16:00,76.6,48.0,29.82,WNW,302,1.0,2.0,36,0.00,,,0.00,0,weatherlink.com 1.10,2013-09-07 03:16:00,
2013-09-06 20:31:00,75.1,48.0,29.83,NW,304,0.0,3.0,39,0.00,,,0.00,0,weatherlink.com 1.10,2013-09-07 03:31:00,
2013-09-06 20:46:00,73.7,49.0,29.83,NW,306,1.0,2.0,42,0.00,,,0.00,0,weatherlink.com 1.10,2013-09-07 03:46:00,
2013-09-06 21:01:00,72.9,49.0,29.83,NNW,336,3.0,3.0,43,0.00,,,0.00,0,weatherlink.com 1.10,2013-09-07 04:01:00,
2013-09-06 21:16:00,72.0,49.0,29.83,North,10,2.0,4.0,44,0.00,,,0.00,0,weatherlink.com 1.10,2013-09-07 04:16:00,
2013-09-06 21:31:00,71.2,49.0,29.83,NNE,32,1.0,3.0,46,0.00,,,0.00,0,weatherlink.com 1.10,2013-09-07 04:31:00,
2013-09-06 21:46:00,70.3,49.0,29.83,NNE,14,1.0,3.0,47,0.00,,,0.00,0,weatherlink.com 1.10,2013-09-07 04:46:00,
2013-09-06 22:01:00,69.5,49.0,29.83,NNE,16,1.0,3.0,48,0.00,,,0.00,0,weatherlink.com 1.10,2013-09-07 05:01:00,
2013-09-06 22:16:00,68.4,48.0,29.83,NNE,15,0.0,1.0,48,0.00,,,0.00,0,weatherlink.com 1.10,2013-09-07 05:16:00,
2013-09-06 22:31:00,66.3,46.0,29.83,NNE,27,0.0,3.0,49,0.00,,,0.00,0,weatherlink.com 1.10,2013-09-07 05:31:00,
2013-09-06 22:46:00,66.1,48.0,29.83,NNE,26,1.0,1.0,53,0.00,,,0.00,0,weatherlink.com 1.10,2013-09-07 05:46:00,
2013-09-06 23:01:00,66.3,49.0,29.83,NNE,26,0.0,3.0,54,0.00,,,0.00,0,weatherlink.com 1.10,2013-09-07 06:01:00,
2013-09-06 23:16:00,65.9,49.0,29.82,NNE,26,1.0,3.0,55,0.00,,,0.00,0,weatherlink.com 1.10,2013-09-07 06:16:00,
2013-09-06 23:31:00,64.4,48.0,29.83,NNE,30,0.0,3.0,56,0.00,,,0.00,0,weatherlink.com 1.10,2013-09-07 06:31:00,
2013-09-06 23:46:00,63.4,47.0,29.82,NNE,30,1.0,2.0,56,0.00,,,0.00,0,weatherlink.com 1.10,2013-09-07 06:46:00,